sensor_id;sensor_type;location;lat;lon;timestamp;P1;durP1;ratioP1;P2;durP2;ratioP2
7316;SDS011;3699;51.462;6.696;2024-03-23T00:56:13;7.33;;;2.87;;
7316;SDS011;3699;51.462;6.696;2024-03-23T00:58:40;10.27;;;2.93;;
7316;SDS011;3699;51.462;6.696;2024-03-23T01:01:06;8.00;;;3.07;;
7316;SDS011;3699;51.462;6.696;2024-03-23T01:03:32;13.67;;;2.97;;
7316;SDS011;3699;51.462;6.696;2024-03-23T01:05:59;7.83;;;2.60;;
7316;SDS011;3699;51.462;6.696;2024-03-23T01:08:25;8.90;;;3.07;;
7316;SDS011;3699;51.462;6.696;2024-03-23T01:10:56;9.33;;;2.87;;
7316;SDS011;3699;51.462;6.696;2024-03-23T01:13:23;14.40;;;3.20;;
7316;SDS011;3699;51.462;6.696;2024-03-23T01:15:49;9.30;;;3.10;;
7316;SDS011;3699;51.462;6.696;2024-03-23T01:18:16;10.33;;;4.40;;
7316;SDS011;3699;51.462;6.696;2024-03-23T01:20:42;8.23;;;3.13;;
7316;SDS011;3699;51.462;6.696;2024-03-23T01:23:09;8.33;;;3.33;;
7316;SDS011;3699;51.462;6.696;2024-03-23T01:25:35;9.33;;;3.50;;
7316;SDS011;3699;51.462;6.696;2024-03-23T01:28:03;8.73;;;2.57;;
7316;SDS011;3699;51.462;6.696;2024-03-23T01:30:29;8.27;;;3.07;;
7316;SDS011;3699;51.462;6.696;2024-03-23T01:32:56;13.70;;;3.73;;
7316;SDS011;3699;51.462;6.696;2024-03-23T01:35:22;7.60;;;3.13;;
7316;SDS011;3699;51.462;6.696;2024-03-23T01:37:49;6.03;;;3.27;;
7316;SDS011;3699;51.462;6.696;2024-03-23T01:40:15;10.70;;;3.10;;
7316;SDS011;3699;51.462;6.696;2024-03-23T01:42:43;10.20;;;3.30;;
7316;SDS011;3699;51.462;6.696;2024-03-23T01:45:22;13.17;;;3.87;;
7316;SDS011;3699;51.462;6.696;2024-03-23T01:47:49;15.93;;;4.53;;
7316;SDS011;3699;51.462;6.696;2024-03-23T01:50:15;11.43;;;3.30;;
7316;SDS011;3699;51.462;6.696;2024-03-23T01:52:42;12.70;;;5.00;;
7316;SDS011;3699;51.462;6.696;2024-03-23T01:55:08;11.97;;;3.70;;
7316;SDS011;3699;51.462;6.696;2024-03-23T01:57:34;4.50;;;2.57;;
7316;SDS011;3699;51.462;6.696;2024-03-23T02:00:00;6.93;;;3.17;;
7316;SDS011;3699;51.462;6.696;2024-03-23T02:02:29;8.47;;;3.00;;
7316;SDS011;3699;51.462;6.696;2024-03-23T02:04:54;9.80;;;2.83;;
7316;SDS011;3699;51.462;6.696;2024-03-23T02:07:21;11.80;;;4.43;;
7316;SDS011;3699;51.462;6.696;2024-03-23T02:09:48;12.00;;;3.70;;
7316;SDS011;3699;51.462;6.696;2024-03-23T02:12:16;10.10;;;3.10;;
7316;SDS011;3699;51.462;6.696;2024-03-23T02:14:42;8.93;;;3.30;;
7316;SDS011;3699;51.462;6.696;2024-03-23T02:17:08;12.60;;;2.60;;
7316;SDS011;3699;51.462;6.696;2024-03-23T02:19:36;7.30;;;2.60;;
7316;SDS011;3699;51.462;6.696;2024-03-23T02:22:02;9.40;;;2.97;;
7316;SDS011;3699;51.462;6.696;2024-03-23T02:24:30;13.93;;;2.97;;
7316;SDS011;3699;51.462;6.696;2024-03-23T02:26:57;9.50;;;4.27;;
7316;SDS011;3699;51.462;6.696;2024-03-23T02:29:22;5.10;;;2.50;;
7316;SDS011;3699;51.462;6.696;2024-03-23T02:31:49;5.80;;;3.27;;
7316;SDS011;3699;51.462;6.696;2024-03-23T02:34:15;6.60;;;2.37;;
7316;SDS011;3699;51.462;6.696;2024-03-23T02:36:41;11.83;;;2.77;;
7316;SDS011;3699;51.462;6.696;2024-03-23T02:39:07;11.73;;;3.67;;
7316;SDS011;3699;51.462;6.696;2024-03-23T02:41:36;4.20;;;2.50;;
7316;SDS011;3699;51.462;6.696;2024-03-23T02:44:02;10.73;;;2.80;;
7316;SDS011;3699;51.462;6.696;2024-03-23T02:46:29;8.83;;;2.53;;
7316;SDS011;3699;51.462;6.696;2024-03-23T02:48:54;7.90;;;2.87;;
7316;SDS011;3699;51.462;6.696;2024-03-23T02:51:22;12.53;;;2.90;;
7316;SDS011;3699;51.462;6.696;2024-03-23T02:53:48;11.70;;;3.00;;
7316;SDS011;3699;51.462;6.696;2024-03-23T02:56:15;6.47;;;2.43;;
7316;SDS011;3699;51.462;6.696;2024-03-23T02:58:43;6.03;;;2.40;;
7316;SDS011;3699;51.462;6.696;2024-03-23T03:01:09;8.50;;;2.40;;
7316;SDS011;3699;51.462;6.696;2024-03-23T03:03:35;7.77;;;3.17;;
7316;SDS011;3699;51.462;6.696;2024-03-23T03:06:02;8.57;;;2.80;;
7316;SDS011;3699;51.462;6.696;2024-03-23T03:08:29;7.97;;;2.80;;
7316;SDS011;3699;51.462;6.696;2024-03-23T03:10:55;11.03;;;4.13;;
7316;SDS011;3699;51.462;6.696;2024-03-23T03:13:22;7.13;;;2.60;;
7316;SDS011;3699;51.462;6.696;2024-03-23T03:15:50;7.60;;;3.37;;
7316;SDS011;3699;51.462;6.696;2024-03-23T03:18:16;6.80;;;2.83;;
7316;SDS011;3699;51.462;6.696;2024-03-23T03:20:43;8.63;;;3.17;;
7316;SDS011;3699;51.462;6.696;2024-03-23T03:23:09;5.33;;;2.73;;
7316;SDS011;3699;51.462;6.696;2024-03-23T03:25:35;14.30;;;4.00;;
7316;SDS011;3699;51.462;6.696;2024-03-23T03:28:01;9.97;;;3.00;;
7316;SDS011;3699;51.462;6.696;2024-03-23T03:30:29;5.20;;;2.80;;
7316;SDS011;3699;51.462;6.696;2024-03-23T03:32:56;10.33;;;4.30;;
7316;SDS011;3699;51.462;6.696;2024-03-23T03:35:23;11.80;;;3.00;;
7316;SDS011;3699;51.462;6.696;2024-03-23T03:37:48;11.13;;;3.43;;
7316;SDS011;3699;51.462;6.696;2024-03-23T03:40:15;15.37;;;4.00;;
7316;SDS011;3699;51.462;6.696;2024-03-23T03:42:41;10.27;;;3.93;;
7316;SDS011;3699;51.462;6.696;2024-03-23T03:45:08;7.97;;;3.00;;
7316;SDS011;3699;51.462;6.696;2024-03-23T03:47:33;7.73;;;3.27;;
7316;SDS011;3699;51.462;6.696;2024-03-23T03:50:02;12.40;;;3.77;;
7316;SDS011;3699;51.462;6.696;2024-03-23T03:52:27;4.37;;;2.63;;
7316;SDS011;3699;51.462;6.696;2024-03-23T03:54:55;4.73;;;3.10;;
7316;SDS011;3699;51.462;6.696;2024-03-23T03:57:27;10.63;;;3.30;;
7316;SDS011;3699;51.462;6.696;2024-03-23T03:59:54;12.97;;;3.20;;
7316;SDS011;3699;51.462;6.696;2024-03-23T04:02:20;7.23;;;3.47;;
7316;SDS011;3699;51.462;6.696;2024-03-23T04:04:46;8.43;;;3.30;;
7316;SDS011;3699;51.462;6.696;2024-03-23T04:07:14;8.70;;;3.40;;
7316;SDS011;3699;51.462;6.696;2024-03-23T04:09:42;8.10;;;3.60;;
7316;SDS011;3699;51.462;6.696;2024-03-23T04:12:08;11.27;;;3.10;;
7316;SDS011;3699;51.462;6.696;2024-03-23T04:14:35;9.80;;;3.33;;
7316;SDS011;3699;51.462;6.696;2024-03-23T04:17:01;11.43;;;3.87;;
7316;SDS011;3699;51.462;6.696;2024-03-23T04:19:28;9.23;;;3.63;;
7316;SDS011;3699;51.462;6.696;2024-03-23T04:21:54;10.17;;;3.70;;
7316;SDS011;3699;51.462;6.696;2024-03-23T04:24:22;17.90;;;4.57;;
7316;SDS011;3699;51.462;6.696;2024-03-23T04:26:48;7.33;;;3.80;;
7316;SDS011;3699;51.462;6.696;2024-03-23T04:29:14;11.07;;;4.00;;
7316;SDS011;3699;51.462;6.696;2024-03-23T04:31:40;15.93;;;5.00;;
7316;SDS011;3699;51.462;6.696;2024-03-23T04:34:07;13.17;;;4.20;;
7316;SDS011;3699;51.462;6.696;2024-03-23T04:36:33;16.03;;;5.33;;
7316;SDS011;3699;51.462;6.696;2024-03-23T04:38:59;14.47;;;5.07;;
7316;SDS011;3699;51.462;6.696;2024-03-23T04:41:28;14.13;;;5.10;;
7316;SDS011;3699;51.462;6.696;2024-03-23T04:43:54;12.47;;;4.77;;
7316;SDS011;3699;51.462;6.696;2024-03-23T04:46:21;17.97;;;5.67;;
7316;SDS011;3699;51.462;6.696;2024-03-23T04:48:48;8.57;;;4.60;;
7316;SDS011;3699;51.462;6.696;2024-03-23T04:51:19;12.00;;;4.80;;
7316;SDS011;3699;51.462;6.696;2024-03-23T04:53:47;13.30;;;4.80;;
7316;SDS011;3699;51.462;6.696;2024-03-23T04:56:14;15.37;;;4.83;;
7316;SDS011;3699;51.462;6.696;2024-03-23T04:58:41;12.43;;;4.90;;
7316;SDS011;3699;51.462;6.696;2024-03-23T05:01:08;19.23;;;5.00;;
7316;SDS011;3699;51.462;6.696;2024-03-23T05:03:34;18.23;;;6.63;;
7316;SDS011;3699;51.462;6.696;2024-03-23T05:06:00;12.50;;;4.70;;
7316;SDS011;3699;51.462;6.696;2024-03-23T05:08:26;15.83;;;5.03;;
7316;SDS011;3699;51.462;6.696;2024-03-23T05:10:53;13.77;;;5.00;;
7316;SDS011;3699;51.462;6.696;2024-03-23T05:13:19;12.47;;;5.83;;
7316;SDS011;3699;51.462;6.696;2024-03-23T05:15:51;9.37;;;4.90;;
7316;SDS011;3699;51.462;6.696;2024-03-23T05:18:18;30.73;;;5.63;;
7316;SDS011;3699;51.462;6.696;2024-03-23T05:20:44;17.10;;;7.37;;
7316;SDS011;3699;51.462;6.696;2024-03-23T05:23:10;22.00;;;9.83;;
7316;SDS011;3699;51.462;6.696;2024-03-23T05:25:37;11.10;;;6.33;;
7316;SDS011;3699;51.462;6.696;2024-03-23T05:28:03;13.30;;;5.63;;
7316;SDS011;3699;51.462;6.696;2024-03-23T05:30:30;15.40;;;5.13;;
7316;SDS011;3699;51.462;6.696;2024-03-23T05:32:57;18.83;;;5.70;;
7316;SDS011;3699;51.462;6.696;2024-03-23T05:35:24;21.23;;;6.40;;
7316;SDS011;3699;51.462;6.696;2024-03-23T05:37:50;17.13;;;6.30;;
7316;SDS011;3699;51.462;6.696;2024-03-23T05:40:17;19.97;;;6.37;;
7316;SDS011;3699;51.462;6.696;2024-03-23T05:42:43;14.03;;;6.37;;
7316;SDS011;3699;51.462;6.696;2024-03-23T05:45:10;13.10;;;6.17;;
7316;SDS011;3699;51.462;6.696;2024-03-23T05:47:36;22.43;;;6.67;;
7316;SDS011;3699;51.462;6.696;2024-03-23T05:50:04;15.90;;;6.30;;
7316;SDS011;3699;51.462;6.696;2024-03-23T05:52:31;14.40;;;6.03;;
7316;SDS011;3699;51.462;6.696;2024-03-23T05:54:58;20.83;;;6.10;;
7316;SDS011;3699;51.462;6.696;2024-03-23T05:57:24;14.80;;;5.93;;
7316;SDS011;3699;51.462;6.696;2024-03-23T05:59:51;15.10;;;5.77;;
7316;SDS011;3699;51.462;6.696;2024-03-23T06:02:16;19.13;;;8.43;;
7316;SDS011;3699;51.462;6.696;2024-03-23T06:04:45;15.27;;;5.97;;
7316;SDS011;3699;51.462;6.696;2024-03-23T06:07:12;13.23;;;6.10;;
7316;SDS011;3699;51.462;6.696;2024-03-23T06:09:39;12.37;;;5.90;;
7316;SDS011;3699;51.462;6.696;2024-03-23T06:12:06;18.67;;;6.63;;
7316;SDS011;3699;51.462;6.696;2024-03-23T06:14:32;13.77;;;5.77;;
7316;SDS011;3699;51.462;6.696;2024-03-23T06:16:59;15.53;;;6.00;;
7316;SDS011;3699;51.462;6.696;2024-03-23T06:19:26;13.77;;;6.27;;
7316;SDS011;3699;51.462;6.696;2024-03-23T06:21:52;8.83;;;5.67;;
7316;SDS011;3699;51.462;6.696;2024-03-23T06:24:21;13.63;;;7.80;;
7316;SDS011;3699;51.462;6.696;2024-03-23T06:26:47;13.83;;;5.97;;
7316;SDS011;3699;51.462;6.696;2024-03-23T06:29:13;13.40;;;5.47;;
7316;SDS011;3699;51.462;6.696;2024-03-23T06:31:39;11.90;;;5.47;;
7316;SDS011;3699;51.462;6.696;2024-03-23T06:34:06;11.47;;;6.37;;
7316;SDS011;3699;51.462;6.696;2024-03-23T06:36:32;13.77;;;5.07;;
7316;SDS011;3699;51.462;6.696;2024-03-23T06:38:58;7.53;;;4.40;;
7316;SDS011;3699;51.462;6.696;2024-03-23T06:41:26;10.13;;;4.90;;
7316;SDS011;3699;51.462;6.696;2024-03-23T06:43:53;15.80;;;5.50;;
7316;SDS011;3699;51.462;6.696;2024-03-23T06:46:18;10.70;;;5.23;;
7316;SDS011;3699;51.462;6.696;2024-03-23T06:48:45;13.13;;;5.50;;
7316;SDS011;3699;51.462;6.696;2024-03-23T06:51:11;9.57;;;5.30;;
7316;SDS011;3699;51.462;6.696;2024-03-23T06:53:38;12.93;;;5.27;;
7316;SDS011;3699;51.462;6.696;2024-03-23T06:56:03;12.33;;;5.47;;
7316;SDS011;3699;51.462;6.696;2024-03-23T06:58:32;12.13;;;5.37;;
7316;SDS011;3699;51.462;6.696;2024-03-23T07:00:58;9.27;;;5.17;;
7316;SDS011;3699;51.462;6.696;2024-03-23T07:03:24;10.23;;;5.60;;
7316;SDS011;3699;51.462;6.696;2024-03-23T07:05:51;12.30;;;5.43;;
7316;SDS011;3699;51.462;6.696;2024-03-23T07:08:18;9.80;;;5.53;;
7316;SDS011;3699;51.462;6.696;2024-03-23T07:10:47;11.63;;;5.83;;
7316;SDS011;3699;51.462;6.696;2024-03-23T07:13:14;10.60;;;5.07;;
7316;SDS011;3699;51.462;6.696;2024-03-23T07:15:41;11.80;;;6.20;;
7316;SDS011;3699;51.462;6.696;2024-03-23T07:18:08;12.67;;;5.87;;
7316;SDS011;3699;51.462;6.696;2024-03-23T07:20:34;14.37;;;5.40;;
7316;SDS011;3699;51.462;6.696;2024-03-23T07:23:01;14.07;;;5.90;;
7316;SDS011;3699;51.462;6.696;2024-03-23T07:25:26;9.83;;;5.00;;
7316;SDS011;3699;51.462;6.696;2024-03-23T07:27:54;11.90;;;5.10;;
7316;SDS011;3699;51.462;6.696;2024-03-23T07:30:20;12.97;;;6.47;;
7316;SDS011;3699;51.462;6.696;2024-03-23T07:32:48;14.73;;;6.60;;
7316;SDS011;3699;51.462;6.696;2024-03-23T07:35:14;12.07;;;5.03;;
7316;SDS011;3699;51.462;6.696;2024-03-23T07:37:41;9.43;;;4.67;;
7316;SDS011;3699;51.462;6.696;2024-03-23T07:40:08;9.37;;;4.83;;
7316;SDS011;3699;51.462;6.696;2024-03-23T07:42:36;12.80;;;5.90;;
7316;SDS011;3699;51.462;6.696;2024-03-23T07:45:02;11.27;;;5.37;;
7316;SDS011;3699;51.462;6.696;2024-03-23T07:47:30;11.17;;;4.80;;
7316;SDS011;3699;51.462;6.696;2024-03-23T07:49:57;9.90;;;5.07;;
7316;SDS011;3699;51.462;6.696;2024-03-23T07:52:24;12.50;;;5.50;;
7316;SDS011;3699;51.462;6.696;2024-03-23T07:54:52;8.60;;;4.47;;
7316;SDS011;3699;51.462;6.696;2024-03-23T07:57:19;11.60;;;4.43;;
7316;SDS011;3699;51.462;6.696;2024-03-23T07:59:45;11.60;;;5.00;;
7316;SDS011;3699;51.462;6.696;2024-03-23T08:02:11;15.50;;;5.43;;
7316;SDS011;3699;51.462;6.696;2024-03-23T08:04:37;11.90;;;5.23;;
7316;SDS011;3699;51.462;6.696;2024-03-23T08:07:05;20.80;;;4.90;;
7316;SDS011;3699;51.462;6.696;2024-03-23T08:09:31;13.10;;;4.57;;
7316;SDS011;3699;51.462;6.696;2024-03-23T08:11:58;12.17;;;4.00;;
7316;SDS011;3699;51.462;6.696;2024-03-23T08:14:23;12.03;;;5.03;;
7316;SDS011;3699;51.462;6.696;2024-03-23T08:16:50;15.23;;;4.77;;
7316;SDS011;3699;51.462;6.696;2024-03-23T08:19:16;11.17;;;4.37;;
7316;SDS011;3699;51.462;6.696;2024-03-23T08:21:43;12.30;;;4.90;;
7316;SDS011;3699;51.462;6.696;2024-03-23T08:24:10;13.57;;;5.77;;
7316;SDS011;3699;51.462;6.696;2024-03-23T08:26:36;11.70;;;5.17;;
7316;SDS011;3699;51.462;6.696;2024-03-23T08:29:02;19.70;;;4.73;;
7316;SDS011;3699;51.462;6.696;2024-03-23T08:31:29;8.27;;;3.83;;
7316;SDS011;3699;51.462;6.696;2024-03-23T08:33:55;9.53;;;4.13;;
7316;SDS011;3699;51.462;6.696;2024-03-23T08:36:22;10.73;;;4.73;;
7316;SDS011;3699;51.462;6.696;2024-03-23T08:38:49;9.13;;;3.97;;
7316;SDS011;3699;51.462;6.696;2024-03-23T08:41:20;6.67;;;3.83;;
7316;SDS011;3699;51.462;6.696;2024-03-23T08:43:45;8.10;;;3.70;;
7316;SDS011;3699;51.462;6.696;2024-03-23T08:46:12;6.67;;;3.70;;
7316;SDS011;3699;51.462;6.696;2024-03-23T08:48:40;9.67;;;4.13;;
7316;SDS011;3699;51.462;6.696;2024-03-23T08:51:09;5.00;;;3.20;;
7316;SDS011;3699;51.462;6.696;2024-03-23T08:53:36;12.57;;;3.57;;
7316;SDS011;3699;51.462;6.696;2024-03-23T08:56:03;7.90;;;4.20;;
7316;SDS011;3699;51.462;6.696;2024-03-23T08:58:31;5.43;;;2.90;;
7316;SDS011;3699;51.462;6.696;2024-03-23T09:01:02;7.40;;;2.97;;
7316;SDS011;3699;51.462;6.696;2024-03-23T09:03:29;6.87;;;3.57;;
7316;SDS011;3699;51.462;6.696;2024-03-23T09:05:56;7.77;;;3.20;;
7316;SDS011;3699;51.462;6.696;2024-03-23T09:08:23;10.30;;;4.30;;
7316;SDS011;3699;51.462;6.696;2024-03-23T09:10:50;8.50;;;4.33;;
7316;SDS011;3699;51.462;6.696;2024-03-23T09:13:16;11.50;;;4.07;;
7316;SDS011;3699;51.462;6.696;2024-03-23T09:15:47;10.20;;;4.57;;
7316;SDS011;3699;51.462;6.696;2024-03-23T09:18:14;9.63;;;4.50;;
7316;SDS011;3699;51.462;6.696;2024-03-23T09:20:40;14.47;;;5.07;;
7316;SDS011;3699;51.462;6.696;2024-03-23T09:23:06;15.40;;;4.97;;
7316;SDS011;3699;51.462;6.696;2024-03-23T09:25:35;13.43;;;5.10;;
7316;SDS011;3699;51.462;6.696;2024-03-23T09:28:03;9.60;;;4.13;;
7316;SDS011;3699;51.462;6.696;2024-03-23T09:30:30;16.10;;;4.70;;
7316;SDS011;3699;51.462;6.696;2024-03-23T09:32:59;9.70;;;5.37;;
7316;SDS011;3699;51.462;6.696;2024-03-23T09:35:26;8.93;;;4.03;;
7316;SDS011;3699;51.462;6.696;2024-03-23T09:37:52;15.07;;;4.20;;
7316;SDS011;3699;51.462;6.696;2024-03-23T09:40:19;7.83;;;3.67;;
7316;SDS011;3699;51.462;6.696;2024-03-23T09:42:49;13.73;;;3.93;;
7316;SDS011;3699;51.462;6.696;2024-03-23T09:45:16;13.00;;;4.00;;
7316;SDS011;3699;51.462;6.696;2024-03-23T09:47:43;6.63;;;3.27;;
7316;SDS011;3699;51.462;6.696;2024-03-23T09:50:12;9.57;;;3.30;;
7316;SDS011;3699;51.462;6.696;2024-03-23T09:52:39;11.33;;;3.70;;
7316;SDS011;3699;51.462;6.696;2024-03-23T09:55:06;10.90;;;3.93;;
7316;SDS011;3699;51.462;6.696;2024-03-23T09:57:34;8.07;;;3.20;;
7316;SDS011;3699;51.462;6.696;2024-03-23T10:00:00;8.00;;;3.07;;
7316;SDS011;3699;51.462;6.696;2024-03-23T10:02:27;4.97;;;2.83;;
7316;SDS011;3699;51.462;6.696;2024-03-23T10:04:53;9.53;;;2.77;;
7316;SDS011;3699;51.462;6.696;2024-03-23T10:07:23;6.13;;;2.50;;
7316;SDS011;3699;51.462;6.696;2024-03-23T10:09:49;11.27;;;2.70;;
7316;SDS011;3699;51.462;6.696;2024-03-23T10:12:17;9.20;;;3.37;;
7316;SDS011;3699;51.462;6.696;2024-03-23T10:14:43;10.50;;;2.70;;
7316;SDS011;3699;51.462;6.696;2024-03-23T10:17:11;8.97;;;3.33;;
7316;SDS011;3699;51.462;6.696;2024-03-23T10:19:39;9.83;;;3.00;;
7316;SDS011;3699;51.462;6.696;2024-03-23T10:22:06;7.83;;;2.50;;
7316;SDS011;3699;51.462;6.696;2024-03-23T10:24:34;8.40;;;2.53;;
7316;SDS011;3699;51.462;6.696;2024-03-23T10:27:01;7.10;;;2.13;;
7316;SDS011;3699;51.462;6.696;2024-03-23T10:29:27;6.77;;;2.73;;
7316;SDS011;3699;51.462;6.696;2024-03-23T10:31:53;8.40;;;3.37;;
7316;SDS011;3699;51.462;6.696;2024-03-23T10:34:32;6.37;;;3.10;;
7316;SDS011;3699;51.462;6.696;2024-03-23T10:36:59;4.03;;;1.77;;
7316;SDS011;3699;51.462;6.696;2024-03-23T10:39:27;5.00;;;1.87;;
7316;SDS011;3699;51.462;6.696;2024-03-23T10:41:55;6.13;;;2.10;;
7316;SDS011;3699;51.462;6.696;2024-03-23T10:44:22;3.30;;;1.53;;
7316;SDS011;3699;51.462;6.696;2024-03-23T10:46:50;2.60;;;1.70;;
7316;SDS011;3699;51.462;6.696;2024-03-23T10:49:23;2.70;;;1.20;;
7316;SDS011;3699;51.462;6.696;2024-03-23T10:51:50;2.77;;;1.70;;
7316;SDS011;3699;51.462;6.696;2024-03-23T10:54:16;1.33;;;1.20;;
7316;SDS011;3699;51.462;6.696;2024-03-23T10:56:44;3.43;;;1.60;;
7316;SDS011;3699;51.462;6.696;2024-03-23T10:59:12;2.40;;;1.67;;
7316;SDS011;3699;51.462;6.696;2024-03-23T11:01:53;4.27;;;2.10;;
7316;SDS011;3699;51.462;6.696;2024-03-23T11:04:29;4.80;;;1.83;;
7316;SDS011;3699;51.462;6.696;2024-03-23T11:06:56;5.30;;;2.00;;
7316;SDS011;3699;51.462;6.696;2024-03-23T11:12:28;5.73;;;2.23;;
7316;SDS011;3699;51.462;6.696;2024-03-23T11:14:59;3.47;;;2.30;;
7316;SDS011;3699;51.462;6.696;2024-03-23T11:17:28;6.10;;;2.67;;
7316;SDS011;3699;51.462;6.696;2024-03-23T11:19:54;5.13;;;2.73;;
7316;SDS011;3699;51.462;6.696;2024-03-23T11:22:37;5.63;;;2.33;;
7316;SDS011;3699;51.462;6.696;2024-03-23T11:25:11;6.00;;;2.57;;
7316;SDS011;3699;51.462;6.696;2024-03-23T11:27:39;5.93;;;3.10;;
7316;SDS011;3699;51.462;6.696;2024-03-23T11:30:15;6.57;;;3.23;;
7316;SDS011;3699;51.462;6.696;2024-03-23T11:32:44;10.10;;;3.20;;
7316;SDS011;3699;51.462;6.696;2024-03-23T11:35:11;7.53;;;3.37;;
7316;SDS011;3699;51.462;6.696;2024-03-23T11:38:01;6.03;;;3.30;;
7316;SDS011;3699;51.462;6.696;2024-03-23T11:40:31;5.03;;;2.87;;
7316;SDS011;3699;51.462;6.696;2024-03-23T11:42:59;3.43;;;2.30;;
7316;SDS011;3699;51.462;6.696;2024-03-23T11:45:27;4.80;;;2.50;;
7316;SDS011;3699;51.462;6.696;2024-03-23T11:48:04;4.77;;;2.60;;
7316;SDS011;3699;51.462;6.696;2024-03-23T11:50:32;8.33;;;2.30;;
7316;SDS011;3699;51.462;6.696;2024-03-23T11:53:14;6.43;;;2.47;;
7316;SDS011;3699;51.462;6.696;2024-03-23T11:55:42;4.43;;;1.80;;
7316;SDS011;3699;51.462;6.696;2024-03-23T11:58:09;11.07;;;2.50;;
7316;SDS011;3699;51.462;6.696;2024-03-23T12:00:37;8.20;;;2.30;;
7316;SDS011;3699;51.462;6.696;2024-03-23T12:03:04;6.70;;;3.03;;
7316;SDS011;3699;51.462;6.696;2024-03-23T12:05:30;8.27;;;2.53;;
7316;SDS011;3699;51.462;6.696;2024-03-23T12:10:43;6.43;;;2.27;;
7316;SDS011;3699;51.462;6.696;2024-03-23T12:13:11;3.43;;;1.50;;
7316;SDS011;3699;51.462;6.696;2024-03-23T12:15:38;4.10;;;1.40;;
7316;SDS011;3699;51.462;6.696;2024-03-23T12:18:07;5.27;;;1.70;;
7316;SDS011;3699;51.462;6.696;2024-03-23T12:20:33;4.57;;;1.70;;
7316;SDS011;3699;51.462;6.696;2024-03-23T12:23:07;4.30;;;1.77;;
7316;SDS011;3699;51.462;6.696;2024-03-23T12:25:34;5.53;;;2.40;;
7316;SDS011;3699;51.462;6.696;2024-03-23T12:28:01;3.00;;;1.70;;
7316;SDS011;3699;51.462;6.696;2024-03-23T12:30:27;8.30;;;3.57;;
7316;SDS011;3699;51.462;6.696;2024-03-23T12:32:55;8.73;;;2.93;;
7316;SDS011;3699;51.462;6.696;2024-03-23T12:35:21;5.67;;;2.40;;
7316;SDS011;3699;51.462;6.696;2024-03-23T12:37:48;3.90;;;2.47;;
7316;SDS011;3699;51.462;6.696;2024-03-23T12:40:14;3.63;;;2.47;;
7316;SDS011;3699;51.462;6.696;2024-03-23T12:42:41;6.33;;;2.30;;
7316;SDS011;3699;51.462;6.696;2024-03-23T12:45:07;3.30;;;1.93;;
7316;SDS011;3699;51.462;6.696;2024-03-23T12:47:34;4.43;;;1.70;;
7316;SDS011;3699;51.462;6.696;2024-03-23T12:50:01;2.33;;;1.40;;
7316;SDS011;3699;51.462;6.696;2024-03-23T12:52:28;7.07;;;3.20;;
7316;SDS011;3699;51.462;6.696;2024-03-23T12:54:55;3.00;;;1.60;;
7316;SDS011;3699;51.462;6.696;2024-03-23T12:57:22;1.90;;;1.40;;
7316;SDS011;3699;51.462;6.696;2024-03-23T12:59:49;4.97;;;1.40;;
7316;SDS011;3699;51.462;6.696;2024-03-23T13:02:17;4.27;;;1.90;;
7316;SDS011;3699;51.462;6.696;2024-03-23T13:04:44;2.43;;;1.87;;
7316;SDS011;3699;51.462;6.696;2024-03-23T13:07:13;3.83;;;1.93;;
7316;SDS011;3699;51.462;6.696;2024-03-23T13:09:38;3.53;;;2.00;;
7316;SDS011;3699;51.462;6.696;2024-03-23T13:12:05;4.10;;;2.30;;
7316;SDS011;3699;51.462;6.696;2024-03-23T13:14:32;6.17;;;2.50;;
7316;SDS011;3699;51.462;6.696;2024-03-23T13:16:58;5.57;;;2.80;;
7316;SDS011;3699;51.462;6.696;2024-03-23T13:19:24;8.13;;;2.80;;
7316;SDS011;3699;51.462;6.696;2024-03-23T13:21:52;6.07;;;3.10;;
7316;SDS011;3699;51.462;6.696;2024-03-23T13:24:22;4.23;;;2.40;;
7316;SDS011;3699;51.462;6.696;2024-03-23T13:26:49;4.17;;;2.27;;
7316;SDS011;3699;51.462;6.696;2024-03-23T13:29:15;5.90;;;2.23;;
7316;SDS011;3699;51.462;6.696;2024-03-23T13:31:42;5.30;;;2.20;;
7316;SDS011;3699;51.462;6.696;2024-03-23T13:34:08;2.80;;;1.63;;
7316;SDS011;3699;51.462;6.696;2024-03-23T13:36:35;4.63;;;1.87;;
7316;SDS011;3699;51.462;6.696;2024-03-23T13:39:01;3.30;;;1.53;;
7316;SDS011;3699;51.462;6.696;2024-03-23T13:41:31;2.67;;;1.40;;
7316;SDS011;3699;51.462;6.696;2024-03-23T13:43:57;3.50;;;1.50;;
7316;SDS011;3699;51.462;6.696;2024-03-23T13:46:24;2.40;;;1.30;;
7316;SDS011;3699;51.462;6.696;2024-03-23T13:48:50;4.70;;;1.53;;
7316;SDS011;3699;51.462;6.696;2024-03-23T13:51:22;6.03;;;1.53;;
7316;SDS011;3699;51.462;6.696;2024-03-23T13:53:49;4.90;;;1.23;;
7316;SDS011;3699;51.462;6.696;2024-03-23T13:56:16;4.53;;;1.50;;
7316;SDS011;3699;51.462;6.696;2024-03-23T13:58:43;2.80;;;1.30;;
7316;SDS011;3699;51.462;6.696;2024-03-23T14:01:12;4.30;;;1.40;;
7316;SDS011;3699;51.462;6.696;2024-03-23T14:03:38;4.20;;;2.03;;
7316;SDS011;3699;51.462;6.696;2024-03-23T14:06:06;6.03;;;2.00;;
7316;SDS011;3699;51.462;6.696;2024-03-23T14:08:32;6.83;;;2.00;;
7316;SDS011;3699;51.462;6.696;2024-03-23T14:11:01;3.90;;;2.00;;
7316;SDS011;3699;51.462;6.696;2024-03-23T14:13:28;2.87;;;2.00;;
7316;SDS011;3699;51.462;6.696;2024-03-23T14:15:57;3.37;;;2.00;;
7316;SDS011;3699;51.462;6.696;2024-03-23T14:18:23;2.67;;;1.47;;
7316;SDS011;3699;51.462;6.696;2024-03-23T14:20:51;2.03;;;1.47;;
7316;SDS011;3699;51.462;6.696;2024-03-23T14:23:18;2.47;;;1.50;;
7316;SDS011;3699;51.462;6.696;2024-03-23T14:25:44;2.07;;;1.43;;
7316;SDS011;3699;51.462;6.696;2024-03-23T14:28:10;5.60;;;1.80;;
7316;SDS011;3699;51.462;6.696;2024-03-23T14:30:40;3.80;;;1.60;;
7316;SDS011;3699;51.462;6.696;2024-03-23T14:33:08;2.73;;;1.63;;
7316;SDS011;3699;51.462;6.696;2024-03-23T14:35:35;2.13;;;1.30;;
7316;SDS011;3699;51.462;6.696;2024-03-23T14:38:01;6.40;;;1.70;;
7316;SDS011;3699;51.462;6.696;2024-03-23T14:40:28;2.70;;;1.23;;
7316;SDS011;3699;51.462;6.696;2024-03-23T14:42:54;4.00;;;1.73;;
7316;SDS011;3699;51.462;6.696;2024-03-23T14:45:21;6.20;;;1.63;;
7316;SDS011;3699;51.462;6.696;2024-03-23T14:47:49;2.73;;;1.20;;
7316;SDS011;3699;51.462;6.696;2024-03-23T14:50:17;4.70;;;1.47;;
7316;SDS011;3699;51.462;6.696;2024-03-23T14:52:44;3.53;;;1.30;;
7316;SDS011;3699;51.462;6.696;2024-03-23T14:55:11;1.57;;;1.10;;
7316;SDS011;3699;51.462;6.696;2024-03-23T14:57:37;6.90;;;1.90;;
7316;SDS011;3699;51.462;6.696;2024-03-23T15:00:06;6.17;;;2.40;;
7316;SDS011;3699;51.462;6.696;2024-03-23T15:02:33;3.13;;;1.60;;
7316;SDS011;3699;51.462;6.696;2024-03-23T15:05:00;2.37;;;1.87;;
7316;SDS011;3699;51.462;6.696;2024-03-23T15:07:27;2.60;;;2.10;;
7316;SDS011;3699;51.462;6.696;2024-03-23T15:09:54;3.47;;;2.10;;
7316;SDS011;3699;51.462;6.696;2024-03-23T15:12:20;3.90;;;2.53;;
7316;SDS011;3699;51.462;6.696;2024-03-23T15:14:47;4.20;;;2.43;;
7316;SDS011;3699;51.462;6.696;2024-03-23T15:17:13;3.67;;;2.40;;
7316;SDS011;3699;51.462;6.696;2024-03-23T15:19:39;5.77;;;2.33;;
7316;SDS011;3699;51.462;6.696;2024-03-23T15:22:06;6.20;;;2.40;;
7316;SDS011;3699;51.462;6.696;2024-03-23T15:24:35;3.33;;;1.90;;
7316;SDS011;3699;51.462;6.696;2024-03-23T15:27:01;2.23;;;2.03;;
7316;SDS011;3699;51.462;6.696;2024-03-23T15:29:28;7.33;;;2.57;;
7316;SDS011;3699;51.462;6.696;2024-03-23T15:31:54;5.17;;;2.00;;
7316;SDS011;3699;51.462;6.696;2024-03-23T15:34:20;5.17;;;2.50;;
7316;SDS011;3699;51.462;6.696;2024-03-23T15:36:47;6.10;;;2.20;;
7316;SDS011;3699;51.462;6.696;2024-03-23T15:39:14;5.23;;;2.57;;
7316;SDS011;3699;51.462;6.696;2024-03-23T15:41:41;5.87;;;2.20;;
7316;SDS011;3699;51.462;6.696;2024-03-23T15:44:10;4.27;;;2.30;;
7316;SDS011;3699;51.462;6.696;2024-03-23T15:46:36;8.40;;;2.50;;
7316;SDS011;3699;51.462;6.696;2024-03-23T15:49:02;2.97;;;2.20;;
7316;SDS011;3699;51.462;6.696;2024-03-23T15:51:29;5.67;;;2.57;;
7316;SDS011;3699;51.462;6.696;2024-03-23T15:53:58;8.17;;;3.20;;
7316;SDS011;3699;51.462;6.696;2024-03-23T15:56:24;4.70;;;2.60;;
7316;SDS011;3699;51.462;6.696;2024-03-23T15:58:52;6.40;;;3.07;;
7316;SDS011;3699;51.462;6.696;2024-03-23T16:01:18;7.30;;;3.27;;
7316;SDS011;3699;51.462;6.696;2024-03-23T16:03:45;10.50;;;2.97;;
7316;SDS011;3699;51.462;6.696;2024-03-23T16:06:11;4.40;;;2.57;;
7316;SDS011;3699;51.462;6.696;2024-03-23T16:08:38;5.97;;;3.23;;
7316;SDS011;3699;51.462;6.696;2024-03-23T16:11:04;3.10;;;1.93;;